createdAt,value
2023-02-15T00:01:12.459Z,10.10
2023-02-15T00:03:41.006Z,10.10
2023-02-15T00:06:09.065Z,10.10
2023-02-15T00:08:37.599Z,10.00
2023-02-15T00:11:09.107Z,10.10
2023-02-15T00:13:37.499Z,10.00
2023-02-15T00:16:11.286Z,10.00
2023-02-15T00:18:40.746Z,10.00
2023-02-15T00:21:11.335Z,9.90
2023-02-15T00:23:59.914Z,9.90
2023-02-15T00:26:28.360Z,9.90
2023-02-15T00:28:56.944Z,9.90
2023-02-15T00:31:25.589Z,9.80
2023-02-15T00:33:53.437Z,9.80
2023-02-15T00:36:22.378Z,9.80
2023-02-15T00:38:50.660Z,9.80
2023-02-15T00:41:18.933Z,9.70
2023-02-15T00:43:48.280Z,9.80
2023-02-15T00:46:16.615Z,9.70
2023-02-15T00:48:45.304Z,9.70
2023-02-15T00:51:13.009Z,9.60
2023-02-15T00:53:40.934Z,9.60
2023-02-15T00:56:09.933Z,9.50
2023-02-15T00:58:38.398Z,9.60
2023-02-15T01:01:09.390Z,9.50
2023-02-15T01:03:57.494Z,9.40
2023-02-15T02:32:41.459Z,8.90
2023-02-15T02:35:26.115Z,8.90
2023-02-15T02:38:17.981Z,8.90
2023-02-15T02:41:05.438Z,8.90
2023-02-15T02:43:46.652Z,8.80
2023-02-15T02:46:21.813Z,8.80
2023-02-15T02:51:38.971Z,8.70
2023-02-15T02:54:08.681Z,8.60
2023-02-15T02:56:40.589Z,8.60
2023-02-15T02:59:15.493Z,8.60
2023-02-15T03:01:47.459Z,8.60
2023-02-15T03:04:20.137Z,8.60
2023-02-15T03:07:09.180Z,8.50
2023-02-15T03:09:43.333Z,8.50
2023-02-15T03:12:16.166Z,8.50
2023-02-15T03:15:08.921Z,8.50
2023-02-15T03:17:41.561Z,8.60
2023-02-15T03:20:18.608Z,8.60
2023-02-15T03:22:52.811Z,8.70
2023-02-15T03:25:23.976Z,8.80
2023-02-15T03:30:47.550Z,8.90
2023-02-15T03:33:16.752Z,9.00
2023-02-15T03:36:06.476Z,9.10
2023-02-15T03:38:57.843Z,9.00
2023-02-15T03:41:28.629Z,9.00
2023-02-15T03:44:03.404Z,9.10
2023-02-15T03:46:38.595Z,9.20
2023-02-15T03:49:13.618Z,9.10
2023-02-15T03:51:45.571Z,9.20
2023-02-15T03:54:18.432Z,9.20
2023-02-15T03:56:48.950Z,9.20
2023-02-15T03:59:36.185Z,9.20
2023-02-15T04:02:07.828Z,9.30
2023-02-15T04:04:42.241Z,9.30
2023-02-15T04:07:11.152Z,9.30
2023-02-15T04:09:57.488Z,9.30
2023-02-15T04:12:29.085Z,9.40
2023-02-15T04:15:18.650Z,9.30
2023-02-15T04:17:46.532Z,9.40
2023-02-15T04:20:35.709Z,9.40
2023-02-15T04:23:25.719Z,9.40
2023-02-15T04:25:53.693Z,9.40
2023-02-15T04:28:21.332Z,9.40
2023-02-15T04:30:55.569Z,9.40
2023-02-15T04:33:23.388Z,9.40
2023-02-15T04:35:51.206Z,9.30
2023-02-15T04:38:19.338Z,9.30
2023-02-15T04:40:56.100Z,9.30
2023-02-15T04:43:24.128Z,9.30
2023-02-15T04:45:53.030Z,9.30
2023-02-15T04:48:20.452Z,9.40
2023-02-15T04:50:48.800Z,9.40
2023-02-15T04:53:17.783Z,9.40
2023-02-15T04:55:46.342Z,9.40
2023-02-15T04:58:14.070Z,9.30
2023-02-15T05:00:42.661Z,9.40
2023-02-15T05:03:10.805Z,9.40
2023-02-15T05:05:38.501Z,9.40
2023-02-15T05:08:06.633Z,9.30
2023-02-15T05:10:34.807Z,9.30
2023-02-15T05:13:02.722Z,9.30
2023-02-15T05:15:31.108Z,9.20
2023-02-15T05:17:58.893Z,9.20
2023-02-15T05:20:27.053Z,9.10
2023-02-15T05:22:57.525Z,9.10
2023-02-15T05:25:45.298Z,9.00
2023-02-15T05:28:24.706Z,8.90
2023-02-15T05:31:08.820Z,8.80
2023-02-15T05:33:37.222Z,8.80
2023-02-15T05:36:06.186Z,8.80
2023-02-15T05:38:34.473Z,8.70
2023-02-15T05:41:02.477Z,8.70
2023-02-15T05:43:30.350Z,8.70
2023-02-15T05:45:58.164Z,8.70
2023-02-15T05:48:27.758Z,8.70
2023-02-15T05:51:02.405Z,8.60
2023-02-15T05:53:31.725Z,8.60
2023-02-15T05:56:04.500Z,8.50
2023-02-15T05:58:34.945Z,8.50
2023-02-15T06:01:15.453Z,8.50
2023-02-15T06:03:43.382Z,8.40
2023-02-15T06:06:11.734Z,8.40
2023-02-15T06:08:39.748Z,8.40
2023-02-15T06:11:07.791Z,8.40
2023-02-15T06:13:38.543Z,8.30
2023-02-15T06:16:06.950Z,8.40
2023-02-15T06:18:35.300Z,8.30
2023-02-15T06:21:02.964Z,8.30
2023-02-15T06:23:31.308Z,8.30
2023-02-15T06:25:59.030Z,8.30
2023-02-15T06:28:26.908Z,8.30
2023-02-15T06:30:54.531Z,8.30
2023-02-15T06:33:23.334Z,8.30
2023-02-15T06:35:50.757Z,8.30
2023-02-15T06:38:19.044Z,8.30
2023-02-15T06:40:47.955Z,8.20
2023-02-15T06:43:16.239Z,8.20
2023-02-15T06:45:44.394Z,8.20
2023-02-15T06:48:13.689Z,8.20
2023-02-15T06:50:45.829Z,8.20
2023-02-15T06:53:13.833Z,8.20
2023-02-15T06:55:52.571Z,8.20
2023-02-15T06:58:24.106Z,8.20
2023-02-15T07:00:53.400Z,8.20
2023-02-15T07:03:20.999Z,8.30
2023-02-15T07:05:50.888Z,8.20
2023-02-15T07:08:21.066Z,8.30
2023-02-15T07:10:50.908Z,8.30
2023-02-15T07:13:19.406Z,8.30
2023-02-15T07:15:54.467Z,8.40
2023-02-15T07:18:22.840Z,8.40
2023-02-15T07:20:50.467Z,8.40
2023-02-15T07:23:18.603Z,8.40
2023-02-15T07:25:46.642Z,8.50
2023-02-15T07:28:14.292Z,8.50
2023-02-15T07:30:42.442Z,8.60
2023-02-15T07:33:25.778Z,8.60
2023-02-15T07:36:03.220Z,8.60
2023-02-15T07:38:42.067Z,8.70
2023-02-15T07:41:12.270Z,8.70
2023-02-15T07:43:42.358Z,8.70
2023-02-15T07:46:16.865Z,8.70
2023-02-15T07:48:45.454Z,8.80
2023-02-15T07:51:13.891Z,8.80
2023-02-15T07:53:42.312Z,8.80
2023-02-15T07:56:13.943Z,9.00
2023-02-15T07:58:54.017Z,9.10
2023-02-15T08:01:30.566Z,9.30
2023-02-15T08:03:59.296Z,9.40
2023-02-15T08:06:29.737Z,9.50
2023-02-15T08:09:01.028Z,9.60
2023-02-15T08:11:35.816Z,9.60
2023-02-15T08:14:12.558Z,9.70
2023-02-15T08:16:43.448Z,9.70
2023-02-15T08:19:14.568Z,9.80
2023-02-15T08:21:45.502Z,9.80
2023-02-15T08:24:17.291Z,9.90
2023-02-15T08:26:48.091Z,9.90
2023-02-15T08:29:36.387Z,9.90
2023-02-15T08:32:07.430Z,10.00
2023-02-15T08:34:39.554Z,10.00
2023-02-15T08:37:10.579Z,10.10
2023-02-15T08:39:38.721Z,10.10
2023-02-15T08:42:06.815Z,10.10
2023-02-15T08:44:34.743Z,10.20
2023-02-15T08:47:04.293Z,10.20
2023-02-15T08:49:32.193Z,10.30
2023-02-15T08:52:00.956Z,10.30
2023-02-15T08:54:29.412Z,10.40
2023-02-15T08:56:57.468Z,10.50
2023-02-15T08:59:27.780Z,10.50
2023-02-15T09:01:56.581Z,10.60
2023-02-15T09:04:24.549Z,10.60
2023-02-15T09:06:52.984Z,10.70
2023-02-15T09:09:21.499Z,10.70
2023-02-15T09:11:56.811Z,10.80
2023-02-15T09:14:22.766Z,10.80
2023-02-15T09:16:52.570Z,10.90
2023-02-15T09:19:22.115Z,10.90
2023-02-15T09:21:52.855Z,11.00
2023-02-15T09:24:21.302Z,11.00
2023-02-15T09:26:55.464Z,11.10
2023-02-15T09:29:24.930Z,11.20
2023-02-15T09:31:53.860Z,11.20
2023-02-15T09:34:23.576Z,11.30
2023-02-15T09:36:52.560Z,11.40
2023-02-15T09:39:42.221Z,11.40
2023-02-15T09:42:31.130Z,11.50
2023-02-15T09:45:29.969Z,11.60
2023-02-15T09:48:18.754Z,11.70
2023-02-15T09:51:10.206Z,11.70
2023-02-15T09:53:57.174Z,11.80
2023-02-15T09:56:28.797Z,11.90
2023-02-15T09:59:06.092Z,11.90
2023-02-15T10:01:50.174Z,12.00
2023-02-15T10:04:55.562Z,12.10
2023-02-15T10:07:42.272Z,12.20
2023-02-15T10:10:17.310Z,12.30
2023-02-15T10:12:54.572Z,12.30
2023-02-15T10:15:40.152Z,12.50
2023-02-15T10:18:12.604Z,12.60
2023-02-15T10:20:59.058Z,12.70
2023-02-15T10:23:47.595Z,12.70
2023-02-15T10:26:24.806Z,12.80
2023-02-15T10:28:56.299Z,12.90
2023-02-15T10:31:31.195Z,13.00
2023-02-15T10:34:23.936Z,13.10
2023-02-15T10:37:15.502Z,13.20
2023-02-15T10:39:59.391Z,13.30
2023-02-15T10:42:54.568Z,13.30
2023-02-15T10:45:35.296Z,13.40
2023-02-15T10:48:30.558Z,13.50
2023-02-15T10:51:04.586Z,13.50
2023-02-15T10:53:57.192Z,13.60
2023-02-15T10:56:40.472Z,13.70
2023-02-15T10:59:36.535Z,13.80
2023-02-15T11:02:43.456Z,13.80
2023-02-15T11:05:30.214Z,13.90
2023-02-15T11:08:01.638Z,14.00
2023-02-15T11:10:48.611Z,14.10
2023-02-15T11:13:19.659Z,14.20
2023-02-15T11:15:54.334Z,14.30
2023-02-15T11:18:41.124Z,14.30
2023-02-15T11:21:15.853Z,14.40
2023-02-15T11:23:46.601Z,14.40
2023-02-15T11:26:45.691Z,14.50
2023-02-15T11:29:32.393Z,14.50
2023-02-15T11:32:16.528Z,14.60
2023-02-15T11:35:03.570Z,14.60
2023-02-15T11:37:44.532Z,14.70
2023-02-15T11:40:33.822Z,14.70
2023-02-15T11:43:08.413Z,14.80
2023-02-15T11:45:36.787Z,14.90
2023-02-15T11:48:13.630Z,15.00
2023-02-15T11:50:43.740Z,15.00
2023-02-15T11:53:22.686Z,15.10
2023-02-15T11:58:43.922Z,15.20
2023-02-15T12:01:15.348Z,15.30
2023-02-15T12:03:49.305Z,15.30
2023-02-15T12:06:20.917Z,15.40
2023-02-15T12:09:05.330Z,15.50
2023-02-15T12:11:41.337Z,15.60
2023-02-15T12:14:11.640Z,15.70
2023-02-15T12:16:55.779Z,15.80
2023-02-15T12:19:31.055Z,15.90
2023-02-15T12:22:09.336Z,15.90
2023-02-15T12:24:40.066Z,16.10
2023-02-15T12:27:17.745Z,16.20
2023-02-15T12:29:55.482Z,16.30
2023-02-15T12:32:30.078Z,16.40
2023-02-15T12:35:10.653Z,16.60
2023-02-15T12:37:38.907Z,16.80
2023-02-15T12:40:22.708Z,16.90
2023-02-15T12:42:50.724Z,17.10
2023-02-15T12:45:25.903Z,17.40
2023-02-15T12:48:40.659Z,17.70
2023-02-15T12:51:10.783Z,17.90
2023-02-15T12:53:44.733Z,18.20
2023-02-15T12:56:31.785Z,18.30
2023-02-15T12:59:06.865Z,18.40
2023-02-15T13:01:35.229Z,18.60
2023-02-15T13:04:06.595Z,18.80
2023-02-15T13:06:36.261Z,19.10
2023-02-15T13:09:20.083Z,19.20
2023-02-15T13:11:49.183Z,19.40
2023-02-15T13:14:20.303Z,19.80
2023-02-15T13:16:52.780Z,20.10
2023-02-15T13:19:30.550Z,20.40
2023-02-15T13:22:01.832Z,20.60
2023-02-15T13:24:33.292Z,20.90
2023-02-15T13:27:14.550Z,21.00
2023-02-15T13:29:37.715Z,21.20
2023-02-15T13:32:08.602Z,21.40
2023-02-15T13:34:39.450Z,21.60
2023-02-15T13:37:35.693Z,21.80
2023-02-15T13:40:10.898Z,21.90
2023-02-15T13:42:46.464Z,21.90
2023-02-15T13:45:40.938Z,22.00
2023-02-15T13:48:12.376Z,22.10
2023-02-15T13:50:44.159Z,22.40
2023-02-15T13:53:37.252Z,22.60
2023-02-15T13:56:23.845Z,22.80
2023-02-15T13:59:05.516Z,22.90
2023-02-15T14:01:46.866Z,23.00
2023-02-15T14:04:33.714Z,23.20
2023-02-15T14:07:33.841Z,23.30
2023-02-15T14:10:23.279Z,23.40
2023-02-15T14:13:07.808Z,23.60
2023-02-15T14:15:46.674Z,23.80
2023-02-15T14:18:42.435Z,24.10
2023-02-15T14:21:14.129Z,24.60
2023-02-15T14:24:11.948Z,25.20
2023-02-15T14:26:52.473Z,25.80
2023-02-15T14:29:46.938Z,26.80
2023-02-15T14:32:31.195Z,27.70
2023-02-15T14:35:01.558Z,28.80
2023-02-15T14:37:54.265Z,29.40
2023-02-15T14:40:56.289Z,30.00
2023-02-15T14:43:47.867Z,30.90
2023-02-15T14:46:22.550Z,31.70
2023-02-15T14:48:51.780Z,32.10
2023-02-15T14:51:47.022Z,32.70
2023-02-15T14:54:20.201Z,33.20
2023-02-15T14:57:07.849Z,33.40
2023-02-15T15:00:00.645Z,33.40
2023-02-15T15:02:49.473Z,33.70
2023-02-15T15:05:27.122Z,33.30
2023-02-15T15:07:58.433Z,33.20
2023-02-15T15:10:38.883Z,33.00
2023-02-15T15:13:27.302Z,32.70
2023-02-15T15:15:55.280Z,32.80
2023-02-15T15:18:46.375Z,32.70
2023-02-15T15:21:35.204Z,32.80
2023-02-15T15:24:03.905Z,33.00
2023-02-15T15:26:38.667Z,33.00
2023-02-15T15:29:07.979Z,32.80
2023-02-15T15:31:45.793Z,32.70
2023-02-15T15:34:23.244Z,32.50
2023-02-15T15:37:24.614Z,32.10
2023-02-15T15:39:56.041Z,31.70
2023-02-15T15:42:43.103Z,31.50
2023-02-15T15:45:20.549Z,31.30
2023-02-15T15:48:06.344Z,31.10
2023-02-15T15:50:26.415Z,30.70
2023-02-15T15:53:00.008Z,30.30
2023-02-15T15:55:31.466Z,29.70
2023-02-15T15:58:02.942Z,29.30
2023-02-15T16:00:40.497Z,29.10
2023-02-15T16:03:17.312Z,29.00
2023-02-15T16:05:44.533Z,28.70
2023-02-15T16:08:20.776Z,28.10
2023-02-15T16:10:54.613Z,27.70
2023-02-15T16:13:22.844Z,26.90
2023-02-15T16:15:57.864Z,26.30
2023-02-15T16:18:28.697Z,25.80
2023-02-15T16:21:02.382Z,25.20
2023-02-15T16:23:40.653Z,24.50
2023-02-15T16:26:19.008Z,24.00
2023-02-15T16:28:50.442Z,23.40
2023-02-15T16:31:18.616Z,22.90
2023-02-15T16:33:47.235Z,22.30
2023-02-15T16:36:27.661Z,21.70
2023-02-15T16:39:02.521Z,21.30
2023-02-15T16:41:31.282Z,20.70
2023-02-15T16:44:03.351Z,20.20
2023-02-15T16:46:43.237Z,19.80
2023-02-15T16:49:18.164Z,19.30
2023-02-15T16:51:51.331Z,18.90
2023-02-15T16:54:24.422Z,18.60
2023-02-15T16:56:53.550Z,18.30
2023-02-15T16:59:28.621Z,17.90
2023-02-15T17:01:58.937Z,17.70
2023-02-15T17:04:31.004Z,17.50
2023-02-15T17:07:05.997Z,17.20
2023-02-15T17:09:32.113Z,17.10
2023-02-15T17:12:14.084Z,16.90
2023-02-15T17:14:42.395Z,16.80
2023-02-15T17:17:16.256Z,16.70
2023-02-15T17:19:52.895Z,16.50
2023-02-15T17:22:28.303Z,16.40
2023-02-15T17:25:01.914Z,16.30
2023-02-15T17:27:33.105Z,16.20
2023-02-15T17:30:04.097Z,16.10
2023-02-15T17:32:35.944Z,15.90
2023-02-15T17:35:10.123Z,15.80
2023-02-15T17:37:42.081Z,15.70
2023-02-15T17:40:25.419Z,15.60
2023-02-15T17:42:56.778Z,15.50
2023-02-15T17:45:27.853Z,15.40
2023-02-15T17:47:58.025Z,15.40
2023-02-15T17:50:28.302Z,15.40
2023-02-15T17:52:58.228Z,15.30
2023-02-15T17:55:43.140Z,15.20
2023-02-15T17:58:16.317Z,15.10
2023-02-15T18:01:05.936Z,15.10
2023-02-15T18:03:55.830Z,15.00
2023-02-15T18:06:42.514Z,14.90
2023-02-15T18:09:34.192Z,14.80
2023-02-15T18:12:02.337Z,14.80
2023-02-15T18:14:31.805Z,14.70
2023-02-15T18:17:03.064Z,14.60
2023-02-15T18:19:31.166Z,14.60
2023-02-15T18:21:59.168Z,14.60
2023-02-15T18:24:27.790Z,14.50
2023-02-15T18:26:55.668Z,14.50
2023-02-15T18:29:23.674Z,14.50
2023-02-15T18:34:45.081Z,14.40
2023-02-15T18:37:19.699Z,14.30
2023-02-15T18:39:54.630Z,14.30
2023-02-15T18:42:32.167Z,14.20
2023-02-15T18:45:03.532Z,14.10
2023-02-15T18:47:31.665Z,14.10
2023-02-15T18:49:59.908Z,14.10
2023-02-15T18:52:31.567Z,14.00
2023-02-15T18:55:02.570Z,14.00
2023-02-15T18:57:30.920Z,14.00
2023-02-15T18:59:58.324Z,13.90
2023-02-15T19:02:26.455Z,13.90
2023-02-15T19:04:54.350Z,13.90
2023-02-15T19:07:30.817Z,13.90
2023-02-15T19:10:00.703Z,13.80
2023-02-15T19:12:29.328Z,13.80
2023-02-15T19:14:57.174Z,13.70
2023-02-15T19:17:25.419Z,13.70
2023-02-15T19:19:56.418Z,13.60
2023-02-15T19:22:30.742Z,13.50
2023-02-15T19:25:23.041Z,13.50
2023-02-15T19:27:51.915Z,13.50
2023-02-15T19:30:23.684Z,13.40
2023-02-15T19:32:52.040Z,13.40
2023-02-15T19:35:26.376Z,13.40
2023-02-15T19:37:56.961Z,13.40
2023-02-15T19:40:28.609Z,13.40
2023-02-15T19:42:56.470Z,13.30
2023-02-15T19:45:26.610Z,13.30
2023-02-15T19:47:56.391Z,13.30
2023-02-15T19:50:36.845Z,13.20
2023-02-15T19:53:11.526Z,13.20
2023-02-15T19:55:56.049Z,13.20
2023-02-15T19:58:27.642Z,13.10
2023-02-15T20:00:59.029Z,13.10
2023-02-15T20:03:30.479Z,13.00
2023-02-15T20:11:35.625Z,13.00
2023-02-15T20:14:04.044Z,13.10
2023-02-15T20:16:32.689Z,13.00
2023-02-15T20:19:00.551Z,13.00
2023-02-15T20:24:23.538Z,13.00
2023-02-15T20:26:54.506Z,13.00
2023-02-15T20:29:25.323Z,12.90
2023-02-15T20:34:56.088Z,12.90
2023-02-15T20:37:34.144Z,12.90
2023-02-15T20:48:28.033Z,12.80
2023-02-15T20:51:07.001Z,12.80
2023-02-15T20:53:38.156Z,12.80
2023-02-15T20:56:21.120Z,12.80
2023-02-15T20:58:51.047Z,12.70
2023-02-15T21:01:35.850Z,12.70
2023-02-15T21:04:11.333Z,12.70
2023-02-15T21:06:54.282Z,12.70
2023-02-15T21:12:20.997Z,12.70
2023-02-15T21:17:34.186Z,12.70
2023-02-15T21:20:03.518Z,12.60
2023-02-15T21:22:32.606Z,12.60
2023-02-15T21:25:02.619Z,12.60
2023-02-15T21:27:30.669Z,12.60
2023-02-15T21:29:59.535Z,12.60
2023-02-15T21:32:27.090Z,12.60
2023-02-15T21:35:07.334Z,12.60
2023-02-15T21:37:39.559Z,12.60
2023-02-15T21:40:17.140Z,12.50
2023-02-15T21:43:02.228Z,12.50
2023-02-15T21:45:48.695Z,12.50
2023-02-15T21:48:16.781Z,12.50
2023-02-15T21:51:03.563Z,12.50
2023-02-15T21:53:34.916Z,12.50
2023-02-15T21:58:58.762Z,12.40
2023-02-15T22:01:29.051Z,12.40
2023-02-15T22:03:59.479Z,12.40
2023-02-15T22:06:27.675Z,12.40
2023-02-15T22:08:58.453Z,12.40
2023-02-15T22:11:31.955Z,12.40
2023-02-15T22:14:00.215Z,12.40
2023-02-15T22:16:30.542Z,12.40
2023-02-15T22:18:58.095Z,12.30
2023-02-15T22:21:26.869Z,12.30
2023-02-15T22:23:57.959Z,12.30
2023-02-15T22:26:41.287Z,12.30
2023-02-15T22:29:12.819Z,12.20
2023-02-15T22:31:44.192Z,12.20
2023-02-15T22:34:18.487Z,12.20
2023-02-15T22:36:47.536Z,12.20
2023-02-15T22:39:16.929Z,12.20
2023-02-15T22:41:45.216Z,12.30
2023-02-15T22:44:14.077Z,12.20
2023-02-15T22:46:41.640Z,12.20
2023-02-15T22:49:30.077Z,12.20
2023-02-15T22:51:57.973Z,12.20
2023-02-15T22:54:25.676Z,12.20
2023-02-15T22:56:54.347Z,12.20
2023-02-15T22:59:29.470Z,12.20
2023-02-15T23:01:57.724Z,12.20
2023-02-15T23:04:28.146Z,12.20
2023-02-15T23:06:58.895Z,12.10
2023-02-15T23:09:26.591Z,12.20
2023-02-15T23:11:54.809Z,12.20
2023-02-15T23:14:26.393Z,12.20
2023-02-15T23:16:57.714Z,12.10
2023-02-15T23:19:25.872Z,12.10
2023-02-15T23:21:54.492Z,12.10
2023-02-15T23:24:28.765Z,12.00
2023-02-15T23:27:02.100Z,12.00
2023-02-15T23:29:30.602Z,11.90
2023-02-15T23:31:59.072Z,11.90
2023-02-15T23:34:31.005Z,11.90
2023-02-15T23:37:00.284Z,11.90
2023-02-15T23:39:47.988Z,11.80
2023-02-15T23:42:21.979Z,11.80
2023-02-15T23:44:50.079Z,11.80
2023-02-15T23:47:54.445Z,11.70
2023-02-15T23:50:25.070Z,11.70
2023-02-15T23:52:53.671Z,11.70
2023-02-15T23:58:15.281Z,11.70
